Time;durP1;ratioP1;P1;durP2;ratioP2;P2;SDS_P1;SDS_P2;PMS_P1;PMS_P2;Temp;Humidity;BMP_temperature;BMP_pressure;BME280_temperature;BME280_humidity;BME280_pressure;Samples;Min_cycle;Max_cycle;Signal;HPM_P1;HPM_P2
2022/04/21 00:00:14;;;;;;;2.50;2.40;;;18.90;42.00;;;;;;5040315;28;21458;-57
2022/04/21 00:02:41;;;;;;;2.87;2.67;;;18.90;42.00;;;;;;5040150;28;20438;-57
2022/04/21 00:05:07;;;;;;;2.63;2.53;;;18.90;42.00;;;;;;5040434;28;20457;-57
2022/04/21 00:07:33;;;;;;;2.90;2.70;;;18.90;42.00;;;;;;5045703;28;20436;-57
2022/04/21 00:09:58;;;;;;;2.83;2.73;;;18.80;42.00;;;;;;5045753;28;20433;-58
2022/04/21 00:12:24;;;;;;;2.70;2.50;;;18.90;42.00;;;;;;5039230;28;20253;-57
2022/04/21 00:14:50;;;;;;;2.53;2.43;;;18.90;42.10;;;;;;5042426;28;20222;-57
2022/04/21 00:17:15;;;;;;;2.53;2.40;;;18.90;42.00;;;;;;5040651;28;20273;-57
2022/04/21 00:19:41;;;;;;;2.83;2.63;;;18.90;42.10;;;;;;5038087;28;20624;-57
2022/04/21 00:24:50;;;;;;;2.60;2.50;;;18.90;42.10;;;;;;5040099;28;20583;-58
2022/04/21 00:27:17;;;;;;;2.40;2.30;;;18.90;42.00;;;;;;5045700;28;20418;-57
2022/04/21 00:29:46;;;;;;;2.50;2.40;;;18.90;42.00;;;;;;5038778;28;20215;-57
2022/04/21 00:32:12;;;;;;;3.00;2.90;;;18.90;42.00;;;;;;5040288;28;20487;-57
2022/04/21 00:34:37;;;;;;;2.50;2.40;;;18.90;42.10;;;;;;5042317;28;20426;-57
2022/04/21 00:37:03;;;;;;;2.90;2.70;;;18.90;42.00;;;;;;5045981;28;20494;-57
2022/04/21 00:39:31;;;;;;;2.50;2.40;;;18.90;42.00;;;;;;5045409;28;20266;-57
2022/04/21 00:41:58;;;;;;;3.13;2.83;;;18.80;42.00;;;;;;5036510;28;20298;-57
2022/04/21 00:44:24;;;;;;;2.33;2.23;;;18.90;42.10;;;;;;5041553;28;20799;-57
2022/04/21 00:46:52;;;;;;;2.30;2.20;;;18.90;42.00;;;;;;5046111;28;20861;-58
2022/04/21 00:49:19;;;;;;;2.47;2.37;;;18.90;42.00;;;;;;5038759;28;20452;-57
2022/04/21 00:51:45;;;;;;;2.70;2.60;;;18.90;42.10;;;;;;5043752;28;20777;-57
2022/04/21 00:54:11;;;;;;;2.27;2.17;;;18.90;42.10;;;;;;5041475;28;20584;-57
2022/04/21 00:56:38;;;;;;;2.57;2.37;;;18.90;42.10;;;;;;5041212;28;20273;-57
2022/04/21 00:59:04;;;;;;;2.43;2.33;;;18.90;42.10;;;;;;5045426;28;20593;-57
2022/04/21 01:04:15;;;;;;;2.47;2.37;;;18.90;42.10;;;;;;5043936;28;20817;-57
2022/04/21 01:06:41;;;;;;;2.47;2.37;;;18.90;42.10;;;;;;5043292;28;20972;-57
2022/04/21 01:09:09;;;;;;;2.47;2.37;;;18.90;42.10;;;;;;5047550;28;20245;-57
2022/04/21 01:11:35;;;;;;;2.27;2.17;;;18.90;42.10;;;;;;5040423;28;20675;-58
2022/04/21 01:14:00;;;;;;;2.87;2.67;;;18.90;42.10;;;;;;5045457;28;20457;-57
2022/04/21 01:16:26;;;;;;;2.47;2.37;;;18.80;42.10;;;;;;5045460;28;20667;-56
2022/04/21 01:18:52;;;;;;;2.63;2.53;;;18.90;42.10;;;;;;5040440;28;20218;-57
2022/04/21 01:21:17;;;;;;;2.90;2.70;;;18.90;42.10;;;;;;5044775;28;20268;-57
2022/04/21 01:23:43;;;;;;;2.20;2.10;;;18.90;42.10;;;;;;5047685;28;20245;-57
2022/04/21 01:26:11;;;;;;;2.63;2.53;;;18.90;42.10;;;;;;5043484;28;20219;-58
2022/04/21 01:28:37;;;;;;;2.60;2.50;;;18.80;42.10;;;;;;5044270;28;20294;-57
2022/04/21 01:31:02;;;;;;;2.37;2.17;;;18.90;42.20;;;;;;5044930;28;20636;-57
2022/04/21 01:33:28;;;;;;;2.17;2.07;;;18.90;42.10;;;;;;5036686;28;20587;-58
2022/04/21 01:35:53;;;;;;;2.70;2.50;;;18.80;42.10;;;;;;5045753;28;20280;-59
2022/04/21 01:41:09;;;;;;;2.40;2.30;;;18.80;42.10;;;;;;5042172;28;20229;-57
2022/04/21 01:43:36;;;;;;;2.43;2.33;;;18.80;42.10;;;;;;5044110;28;20439;-57
2022/04/21 01:46:02;;;;;;;2.80;2.70;;;18.80;42.10;;;;;;5040910;28;20443;-57
2022/04/21 01:48:28;;;;;;;2.40;2.30;;;18.80;42.10;;;;;;5038654;28;20444;-58
2022/04/21 01:50:53;;;;;;;2.47;2.37;;;18.80;42.10;;;;;;5042236;28;20452;-58
2022/04/21 01:53:19;;;;;;;2.53;2.33;;;18.90;42.20;;;;;;5043617;28;20253;-57
2022/04/21 01:55:46;;;;;;;2.70;2.60;;;18.80;42.10;;;;;;5041134;28;20235;-58
2022/04/21 01:58:12;;;;;;;3.00;2.80;;;18.80;42.10;;;;;;5042542;28;20223;-57
2022/04/21 02:00:38;;;;;;;2.70;2.60;;;18.80;42.20;;;;;;5040956;28;20455;-57
2022/04/21 02:03:04;;;;;;;2.70;2.60;;;18.80;42.10;;;;;;5044305;28;20227;-57
2022/04/21 02:05:29;;;;;;;2.90;2.70;;;18.80;42.10;;;;;;5041739;28;20541;-57
2022/04/21 02:07:55;;;;;;;2.70;2.60;;;18.80;42.10;;;;;;5044081;28;20296;-58
2022/04/21 02:10:23;;;;;;;2.43;2.33;;;18.80;42.20;;;;;;5037916;28;20257;-57
2022/04/21 02:12:50;;;;;;;2.80;2.70;;;18.80;42.10;;;;;;5043696;28;20590;-58
2022/04/21 02:15:19;;;;;;;2.33;2.23;;;18.80;42.10;;;;;;5044820;28;20451;-57
2022/04/21 02:17:46;;;;;;;2.90;2.80;;;18.80;42.10;;;;;;5043338;28;20463;-57
2022/04/21 02:20:16;;;;;;;3.10;3.00;;;18.80;42.10;;;;;;5043577;28;20444;-57
2022/04/21 02:22:43;;;;;;;3.07;2.87;;;18.80;42.20;;;;;;5042606;28;20947;-57
2022/04/21 02:25:11;;;;;;;2.53;2.43;;;18.80;42.10;;;;;;5042795;28;20463;-57
2022/04/21 02:27:38;;;;;;;2.70;2.60;;;18.80;42.20;;;;;;5038423;28;20415;-57
2022/04/21 02:30:05;;;;;;;2.90;2.80;;;18.80;42.10;;;;;;5045063;28;20418;-58
2022/04/21 02:32:31;;;;;;;2.63;2.53;;;18.80;42.10;;;;;;5039288;28;20452;-57
2022/04/21 02:34:57;;;;;;;2.53;2.43;;;18.80;42.20;;;;;;5043299;28;20421;-57
2022/04/21 02:37:23;;;;;;;2.30;2.20;;;18.80;42.10;;;;;;5045672;28;20223;-57
2022/04/21 02:39:49;;;;;;;2.50;2.40;;;18.80;42.10;;;;;;5045872;28;20229;-58
2022/04/21 02:42:15;;;;;;;2.80;2.70;;;18.80;42.20;;;;;;5042470;28;20507;-57
2022/04/21 02:44:41;;;;;;;2.70;2.60;;;18.80;42.20;;;;;;5042620;28;20932;-58
2022/04/21 02:47:09;;;;;;;3.00;2.80;;;18.80;42.20;;;;;;5040717;28;20425;-57
2022/04/21 02:49:36;;;;;;;2.43;2.33;;;18.80;42.20;;;;;;5039037;28;20235;-57
2022/04/21 02:52:11;;;;;;;2.63;2.53;;;18.80;42.20;;;;;;5045827;28;20928;-57
2022/04/21 02:57:22;;;;;;;2.47;2.37;;;18.80;42.20;;;;;;5039586;28;20446;-57
2022/04/21 02:59:53;;;;;;;2.60;2.50;;;18.80;42.20;;;;;;5043836;28;20426;-57
2022/04/21 03:02:19;;;;;;;2.47;2.37;;;18.80;42.20;;;;;;5041963;28;20454;-57
2022/04/21 03:04:45;;;;;;;2.57;2.47;;;18.80;42.20;;;;;;5041053;28;20441;-57
2022/04/21 03:07:13;;;;;;;2.90;2.80;;;18.80;42.20;;;;;;5044677;28;20808;-57
2022/04/21 03:09:39;;;;;;;2.80;2.70;;;18.80;42.20;;;;;;5043405;28;20235;-57
2022/04/21 03:12:07;;;;;;;2.43;2.33;;;18.80;42.20;;;;;;5040297;28;20444;-58
2022/04/21 03:14:35;;;;;;;2.43;2.33;;;18.80;42.20;;;;;;5043461;28;20428;-57
2022/04/21 03:17:01;;;;;;;3.10;3.00;;;18.80;42.20;;;;;;5042395;28;20519;-57
2022/04/21 03:19:26;;;;;;;2.57;2.47;;;18.80;42.20;;;;;;5041612;28;21229;-57
2022/04/21 03:24:37;;;;;;;2.60;2.50;;;18.80;42.20;;;;;;5039819;28;20737;-57
2022/04/21 03:27:03;;;;;;;2.80;2.70;;;18.80;42.20;;;;;;5041703;28;20417;-57
2022/04/21 03:29:29;;;;;;;2.70;2.60;;;18.80;42.10;;;;;;5044512;28;20891;-57
2022/04/21 03:31:55;;;;;;;2.90;2.80;;;18.80;42.20;;;;;;5037216;28;20455;-57
2022/04/21 03:34:21;;;;;;;2.70;2.60;;;18.80;42.20;;;;;;5044482;28;20214;-57
2022/04/21 03:36:47;;;;;;;2.53;2.43;;;18.80;42.20;;;;;;5041710;28;20345;-57
2022/04/21 03:39:21;;;;;;;2.83;2.73;;;18.80;42.20;;;;;;5043756;28;20444;-57
2022/04/21 03:41:53;;;;;;;2.90;2.80;;;18.80;42.10;;;;;;5044337;28;20444;-57
2022/04/21 03:44:22;;;;;;;2.60;2.50;;;18.80;42.10;;;;;;5043971;28;20466;-57
2022/04/21 03:46:48;;;;;;;3.10;2.90;;;18.80;42.10;;;;;;5034376;28;20438;-57
2022/04/21 03:49:14;;;;;;;2.30;2.20;;;18.80;42.10;;;;;;5036909;28;20418;-58
2022/04/21 03:51:40;;;;;;;2.67;2.57;;;18.80;42.10;;;;;;5040321;28;20437;-58
2022/04/21 03:54:06;;;;;;;3.03;2.93;;;18.80;42.10;;;;;;5038111;28;20230;-57
2022/04/21 03:56:32;;;;;;;2.70;2.60;;;18.80;42.10;;;;;;5041810;28;20230;-57
2022/04/21 03:58:58;;;;;;;2.90;2.70;;;18.80;42.20;;;;;;5038710;28;20226;-57
2022/04/21 04:01:23;;;;;;;2.77;2.67;;;18.80;42.10;;;;;;5038205;28;20427;-58
2022/04/21 04:03:49;;;;;;;3.10;3.00;;;18.80;42.10;;;;;;5038118;28;20238;-57
2022/04/21 04:11:44;;;;;;;2.73;2.63;;;18.80;42.20;;;;;;5036688;28;20468;-58
2022/04/21 04:14:09;;;;;;;2.87;2.73;;;18.80;42.20;;;;;;5042813;28;20801;-58
2022/04/21 04:16:35;;;;;;;2.70;2.50;;;18.80;42.20;;;;;;5044579;28;20210;-59
2022/04/21 04:19:07;;;;;;;2.33;2.23;;;18.80;43.00;;;;;;5020057;28;20247;-58
2022/04/21 04:21:37;;;;;;;2.77;2.57;;;18.80;42.10;;;;;;5042359;28;20434;-58
2022/04/21 04:24:03;;;;;;;2.80;2.70;;;18.80;42.10;;;;;;5038146;28;20446;-58
2022/04/21 04:26:30;;;;;;;6.80;2.97;;;18.80;42.20;;;;;;5037065;28;20467;-58
2022/04/21 04:28:55;;;;;;;2.73;2.53;;;18.80;42.10;;;;;;5040242;28;20423;-58
2022/04/21 04:31:21;;;;;;;3.23;3.03;;;18.80;42.10;;;;;;5037809;28;20492;-58
2022/04/21 04:33:46;;;;;;;3.33;3.00;;;18.80;42.10;;;;;;5038728;28;20265;-58
2022/04/21 04:36:15;;;;;;;2.70;2.50;;;18.80;42.10;;;;;;5040365;28;20224;-58
2022/04/21 04:38:41;;;;;;;2.90;2.60;;;18.80;42.10;;;;;;5040303;28;20218;-57
2022/04/21 04:43:51;;;;;;;3.00;2.80;;;18.80;42.10;;;;;;5040113;28;20702;-57
2022/04/21 04:46:35;;;;;;;2.93;2.73;;;18.80;42.10;;;;;;5038720;28;20443;-57
2022/04/21 04:49:02;;;;;;;2.60;2.50;;;18.90;42.10;;;;;;5040390;28;20246;-57
2022/04/21 04:51:27;;;;;;;4.03;2.73;;;18.90;42.00;;;;;;5031721;28;20817;-56
2022/04/21 04:53:54;;;;;;;4.67;2.47;;;18.90;41.90;;;;;;5044338;28;20442;-56
2022/04/21 04:56:21;;;;;;;2.27;2.07;;;18.90;41.80;;;;;;5044317;28;20229;-56
2022/04/21 04:58:47;;;;;;;2.67;2.47;;;19.00;41.80;;;;;;5042237;28;20530;-57
2022/04/21 05:01:14;;;;;;;2.43;2.33;;;19.00;41.80;;;;;;5039413;28;21145;-56
2022/04/21 05:03:39;;;;;;;2.73;2.53;;;19.00;41.80;;;;;;5043855;28;20470;-56
2022/04/21 05:06:05;;;;;;;2.80;2.63;;;19.00;41.80;;;;;;5043299;28;20438;-56
2022/04/21 05:08:30;;;;;;;2.50;2.40;;;19.00;41.70;;;;;;5038326;28;20239;-57
2022/04/21 05:10:56;;;;;;;2.67;2.47;;;19.00;41.70;;;;;;5038329;28;20558;-56
2022/04/21 05:13:22;;;;;;;2.80;2.57;;;19.00;41.80;;;;;;5039016;28;20254;-56
2022/04/21 05:15:48;;;;;;;2.77;2.57;;;19.00;41.80;;;;;;5037860;28;20223;-56
2022/04/21 05:18:14;;;;;;;2.33;2.23;;;19.00;41.70;;;;;;5036758;28;20289;-57
2022/04/21 05:20:40;;;;;;;2.40;2.30;;;19.00;41.70;;;;;;5038868;28;20443;-57
2022/04/21 05:23:06;;;;;;;2.00;1.90;;;19.00;41.80;;;;;;5040342;28;20468;-56
2022/04/21 05:25:36;;;;;;;2.33;2.23;;;19.00;41.70;;;;;;5041859;28;20314;-56
2022/04/21 05:28:02;;;;;;;2.70;2.50;;;19.00;41.70;;;;;;5042690;28;20411;-56
2022/04/21 05:33:15;;;;;;;4.40;2.60;;;19.00;41.70;;;;;;5038036;28;20490;-57
2022/04/21 05:35:41;;;;;;;2.40;2.30;;;19.00;41.70;;;;;;5037479;28;20435;-56
2022/04/21 05:38:07;;;;;;;2.40;2.00;;;19.00;41.70;;;;;;5040533;28;20438;-56
2022/04/21 05:40:33;;;;;;;2.70;2.50;;;19.00;41.80;;;;;;5044767;28;21064;-56
2022/04/21 05:43:03;;;;;;;2.10;2.00;;;19.00;41.80;;;;;;5044971;28;20346;-57
2022/04/21 05:45:29;;;;;;;2.13;2.03;;;19.00;41.80;;;;;;5035678;28;20416;-56
2022/04/21 05:47:57;;;;;;;2.33;2.23;;;19.00;41.80;;;;;;5043863;28;20471;-56
2022/04/21 05:50:23;;;;;;;2.23;2.13;;;19.00;41.80;;;;;;5042341;28;20226;-56
2022/04/21 05:52:52;;;;;;;2.40;2.30;;;19.00;41.80;;;;;;5040865;28;20464;-56
2022/04/21 05:55:17;;;;;;;2.67;2.47;;;19.00;41.80;;;;;;5041511;28;20443;-56
2022/04/21 05:57:44;;;;;;;3.20;2.50;;;19.00;41.80;;;;;;5045250;28;20948;-60
2022/04/21 06:00:11;;;;;;;2.10;2.00;;;19.00;41.80;;;;;;5043795;28;20219;-57
2022/04/21 06:02:37;;;;;;;2.17;2.07;;;19.00;41.80;;;;;;5036809;28;20956;-57
2022/04/21 06:05:04;;;;;;;1.90;1.80;;;19.00;41.70;;;;;;5043773;28;20448;-57
2022/04/21 06:07:29;;;;;;;2.20;2.10;;;19.00;41.80;;;;;;5041112;28;20466;-58
2022/04/21 06:09:55;;;;;;;2.17;2.00;;;19.00;41.80;;;;;;5043751;28;20483;-57
2022/04/21 06:12:23;;;;;;;2.50;2.40;;;19.00;41.70;;;;;;5041221;28;20213;-57
2022/04/21 06:14:48;;;;;;;2.07;1.97;;;19.00;41.70;;;;;;5042332;28;20306;-57
2022/04/21 06:17:14;;;;;;;2.40;2.20;;;19.00;41.80;;;;;;5038799;28;20547;-57
2022/04/21 06:19:39;;;;;;;2.30;2.20;;;19.00;41.70;;;;;;5041974;28;20227;-57
2022/04/21 06:22:05;;;;;;;2.90;2.43;;;19.10;41.80;;;;;;5041065;28;20227;-58
2022/04/21 06:24:31;;;;;;;2.17;2.07;;;19.00;41.70;;;;;;5038601;28;20227;-57
2022/04/21 06:26:56;;;;;;;1.90;1.80;;;19.00;41.70;;;;;;5042118;28;20671;-57
2022/04/21 06:29:22;;;;;;;2.23;1.90;;;19.00;41.80;;;;;;5041116;28;20786;-57
2022/04/21 06:31:47;;;;;;;2.20;2.10;;;19.00;41.80;;;;;;5041387;28;20256;-56
2022/04/21 06:34:13;;;;;;;2.23;2.13;;;19.00;41.70;;;;;;5040610;28;20222;-57
2022/04/21 06:36:38;;;;;;;1.93;1.83;;;19.00;41.70;;;;;;5042547;28;20223;-58
2022/04/21 06:39:04;;;;;;;2.20;2.10;;;19.00;41.70;;;;;;5046963;28;20675;-58
2022/04/21 06:41:29;;;;;;;2.10;2.00;;;19.00;41.70;;;;;;5043870;28;20246;-58
2022/04/21 06:49:23;;;;;;;2.03;1.93;;;19.00;41.80;;;;;;5042398;28;20466;-58
2022/04/21 06:51:49;;;;;;;2.63;2.43;;;19.00;41.80;;;;;;5043603;28;20418;-57
2022/04/21 06:54:14;;;;;;;1.90;1.80;;;19.00;41.80;;;;;;5037541;28;20252;-57
2022/04/21 06:56:40;;;;;;;3.00;2.67;;;19.00;41.80;;;;;;5041239;28;20261;-58
2022/04/21 06:59:05;;;;;;;2.30;2.20;;;19.00;41.80;;;;;;5044743;28;20243;-58
2022/04/21 07:01:31;;;;;;;2.10;2.00;;;19.00;41.80;;;;;;5038910;28;20222;-57
2022/04/21 07:03:57;;;;;;;2.53;2.43;;;19.00;41.70;;;;;;5040294;28;20296;-57
2022/04/21 07:06:22;;;;;;;2.00;1.80;;;19.00;41.80;;;;;;5040151;28;20234;-58
2022/04/21 07:08:48;;;;;;;1.97;1.87;;;19.00;41.80;;;;;;5038796;28;20742;-58
2022/04/21 07:11:15;;;;;;;1.90;1.80;;;19.00;41.80;;;;;;5045711;28;20636;-58
2022/04/21 07:13:41;;;;;;;2.00;1.90;;;19.00;41.80;;;;;;5040512;28;20487;-58
2022/04/21 07:16:07;;;;;;;2.30;2.20;;;19.00;41.70;;;;;;5040304;28;20427;-58
2022/04/21 07:18:32;;;;;;;1.80;1.70;;;19.00;41.80;;;;;;5042168;28;20418;-57
2022/04/21 07:21:00;;;;;;;2.13;2.03;;;19.00;41.80;;;;;;5042678;28;20241;-58
2022/04/21 07:23:26;;;;;;;2.10;2.00;;;19.00;41.80;;;;;;5040931;28;20983;-57
2022/04/21 07:25:51;;;;;;;2.13;2.03;;;19.00;41.80;;;;;;5038410;28;20462;-57
2022/04/21 07:28:17;;;;;;;2.00;1.90;;;19.00;41.80;;;;;;5042662;28;20636;-58
2022/04/21 07:30:43;;;;;;;2.27;2.17;;;19.00;41.80;;;;;;5039282;28;20226;-58
2022/04/21 07:33:08;;;;;;;1.97;1.87;;;19.00;41.80;;;;;;5038576;28;20242;-58
2022/04/21 07:35:34;;;;;;;2.00;1.90;;;19.00;41.80;;;;;;5042271;28;20223;-58
2022/04/21 07:38:00;;;;;;;1.90;1.80;;;19.00;41.80;;;;;;5036971;28;20222;-58
2022/04/21 07:40:26;;;;;;;2.27;2.13;;;19.00;41.80;;;;;;5038592;28;20252;-58
2022/04/21 07:42:52;;;;;;;2.03;1.93;;;19.00;41.80;;;;;;5039051;28;20698;-58
2022/04/21 07:45:18;;;;;;;2.00;1.90;;;19.00;41.80;;;;;;5035282;28;20315;-58
2022/04/21 07:47:44;;;;;;;2.47;2.27;;;19.00;41.80;;;;;;5043332;28;20992;-58
2022/04/21 07:50:09;;;;;;;2.40;2.20;;;19.00;41.80;;;;;;5041184;28;20264;-58
2022/04/21 07:55:25;;;;;;;2.00;1.90;;;19.00;41.80;;;;;;5036230;28;20305;-58
2022/04/21 07:57:56;;;;;;;2.10;2.00;;;19.00;41.80;;;;;;5040648;28;20850;-58
2022/04/21 08:00:22;;;;;;;2.30;2.20;;;19.00;41.80;;;;;;5036349;28;20452;-58
2022/04/21 08:02:48;;;;;;;2.50;2.40;;;19.00;41.80;;;;;;5042647;28;20461;-58
2022/04/21 08:05:16;;;;;;;1.80;1.70;;;19.00;41.80;;;;;;5040015;28;20495;-58
2022/04/21 08:07:41;;;;;;;2.10;2.00;;;19.00;41.80;;;;;;5040125;28;20430;-58
2022/04/21 08:10:09;;;;;;;2.27;2.17;;;19.00;41.90;;;;;;5037091;28;20526;-58
2022/04/21 08:12:51;;;;;;;2.20;2.10;;;19.00;41.90;;;;;;5043601;28;20225;-58
2022/04/21 08:15:35;;;;;;;2.30;2.20;;;19.00;41.80;;;;;;5036954;28;21950;-58
2022/04/21 08:18:05;;;;;;;2.13;2.03;;;19.10;41.90;;;;;;5033897;28;20813;-58
2022/04/21 08:20:33;;;;;;;2.27;2.17;;;19.00;41.80;;;;;;5041549;28;20507;-58
2022/04/21 08:22:58;;;;;;;1.93;1.83;;;19.00;41.90;;;;;;5043382;28;20471;-58
2022/04/21 08:33:37;;;;;;;1.97;1.87;;;19.10;42.00;;;;;;5040404;28;20925;-58
2022/04/21 08:36:03;;;;;;;2.00;1.90;;;19.10;41.90;;;;;;5042846;28;20423;-58
2022/04/21 08:38:30;;;;;;;2.57;2.47;;;19.10;42.00;;;;;;5038338;28;20230;-57
2022/04/21 08:40:58;;;;;;;2.10;2.00;;;19.10;42.00;;;;;;5041284;28;20534;-56
2022/04/21 08:43:27;;;;;;;3.20;2.10;;;19.10;42.00;;;;;;5041765;28;20833;-57
2022/04/21 08:45:53;;;;;;;2.20;2.10;;;19.00;41.90;;;;;;5038282;28;20541;-57
2022/04/21 08:48:23;;;;;;;2.10;2.00;;;19.10;42.00;;;;;;5039249;28;20957;-57
2022/04/21 08:50:49;;;;;;;2.00;1.90;;;19.10;42.00;;;;;;5040042;28;20456;-57
2022/04/21 08:53:24;;;;;;;2.30;2.10;;;19.10;41.90;;;;;;5037363;28;20423;-56
2022/04/21 08:55:51;;;;;;;2.73;2.00;;;19.10;42.00;;;;;;5046145;28;20873;-56
2022/04/21 08:58:16;;;;;;;2.37;2.17;;;19.10;42.00;;;;;;5042653;28;20448;-57
2022/04/21 09:00:43;;;;;;;2.20;2.10;;;19.10;42.00;;;;;;5045201;28;20849;-57
2022/04/21 09:03:11;;;;;;;2.20;2.10;;;19.10;41.90;;;;;;5047404;28;20284;-57
2022/04/21 09:05:38;;;;;;;2.30;2.20;;;19.10;41.90;;;;;;5041725;28;20433;-57
2022/04/21 09:08:04;;;;;;;2.10;2.00;;;19.10;42.70;;;;;;5041290;28;20426;-58
2022/04/21 09:10:35;;;;;;;2.17;2.07;;;19.10;42.00;;;;;;5046307;28;20435;-57
2022/04/21 09:13:02;;;;;;;2.20;2.10;;;19.10;41.90;;;;;;5026723;28;20493;-57
2022/04/21 09:15:30;;;;;;;2.30;2.20;;;19.10;41.80;;;;;;5041350;28;20426;-57
2022/04/21 09:18:00;;;;;;;2.13;2.03;;;19.10;41.90;;;;;;5042936;28;20534;-57
2022/04/21 09:20:36;;;;;;;2.10;2.00;;;19.10;41.90;;;;;;5046079;28;20444;-57
2022/04/21 09:23:05;;;;;;;2.23;2.13;;;19.10;41.90;;;;;;5043284;28;20487;-57
2022/04/21 09:25:32;;;;;;;2.60;2.50;;;19.10;42.00;;;;;;5046787;28;20796;-57
2022/04/21 09:28:02;;;;;;;2.07;1.97;;;19.10;42.00;;;;;;5042905;28;20436;-57
2022/04/21 09:30:27;;;;;;;2.40;2.30;;;19.10;41.90;;;;;;5041534;28;20570;-56
2022/04/21 09:33:00;;;;;;;2.00;1.90;;;19.00;41.90;;;;;;5045569;28;20990;-57
2022/04/21 09:35:28;;;;;;;2.50;2.30;;;19.10;41.90;;;;;;5037985;28;20243;-57
2022/04/21 09:37:58;;;;;;;2.57;2.43;;;19.10;41.90;;;;;;5042618;28;20431;-57
2022/04/21 09:40:28;;;;;;;2.60;2.50;;;19.00;41.80;;;;;;5043061;28;20471;-57
2022/04/21 09:43:02;;;;;;;2.10;2.00;;;19.00;41.90;;;;;;5043659;28;20946;-58
2022/04/21 09:48:20;;;;;;;2.60;2.40;;;19.00;41.90;;;;;;5044484;28;20491;-57
2022/04/21 09:50:51;;;;;;;2.43;2.33;;;19.00;41.90;;;;;;5044693;28;20434;-56
2022/04/21 09:53:19;;;;;;;2.37;2.27;;;19.00;41.90;;;;;;5044792;28;20792;-57
2022/04/21 09:55:45;;;;;;;2.20;2.10;;;19.00;41.90;;;;;;5045437;28;20414;-57
2022/04/21 09:58:12;;;;;;;2.40;2.30;;;19.00;41.80;;;;;;5048266;28;20414;-57
2022/04/21 10:00:39;;;;;;;2.23;2.10;;;19.00;41.90;;;;;;5041408;28;20430;-57
2022/04/21 10:03:06;;;;;;;2.30;2.20;;;19.00;41.90;;;;;;5040785;28;20475;-58
2022/04/21 10:05:34;;;;;;;2.13;2.03;;;19.00;41.90;;;;;;5039378;28;20435;-56
2022/04/21 10:08:01;;;;;;;2.50;2.30;;;19.00;41.90;;;;;;5043387;28;20491;-57
2022/04/21 10:10:29;;;;;;;2.20;2.10;;;19.00;41.90;;;;;;5040583;28;20920;-57
2022/04/21 10:12:59;;;;;;;2.27;2.17;;;19.00;41.90;;;;;;5040836;28;20422;-57
2022/04/21 10:15:26;;;;;;;2.53;2.43;;;19.00;41.90;;;;;;5043987;28;20442;-57
2022/04/21 10:17:52;;;;;;;2.80;2.70;;;19.00;42.70;;;;;;5040721;28;20465;-57
2022/04/21 10:20:24;;;;;;;2.30;2.20;;;19.00;41.90;;;;;;5041482;28;20434;-58
2022/04/21 10:22:52;;;;;;;2.40;2.20;;;19.00;41.90;;;;;;5038297;28;20330;-57
2022/04/21 10:25:22;;;;;;;2.10;2.00;;;19.00;41.90;;;;;;5044317;28;20927;-57
2022/04/21 10:27:49;;;;;;;2.30;2.20;;;19.00;41.90;;;;;;5038057;28;20817;-57
2022/04/21 10:30:21;;;;;;;2.00;1.90;;;19.00;41.90;;;;;;5040569;28;20442;-57
2022/04/21 10:32:52;;;;;;;2.50;2.40;;;19.00;41.90;;;;;;5038954;28;20470;-57
2022/04/21 10:35:23;;;;;;;2.87;2.40;;;19.00;41.90;;;;;;5042748;28;20442;-57
2022/04/21 10:38:18;;;;;;;2.40;2.30;;;19.00;41.90;;;;;;5039915;28;20438;-57
2022/04/21 10:40:54;;;;;;;2.30;2.20;;;19.00;41.90;;;;;;5041097;28;20439;-57
2022/04/21 10:43:19;;;;;;;2.27;2.17;;;19.00;42.00;;;;;;5041330;28;20446;-57
2022/04/21 10:46:03;;;;;;;2.37;2.27;;;19.00;42.00;;;;;;5039907;28;20441;-57
2022/04/21 10:48:43;;;;;;;2.20;2.10;;;19.00;41.90;;;;;;5037839;28;20250;-57
2022/04/21 10:51:09;;;;;;;2.33;2.23;;;19.00;42.00;;;;;;5039113;28;20824;-57
2022/04/21 10:59:30;;;;;;;2.30;2.20;;;19.00;42.00;;;;;;5040296;28;20472;-57
2022/04/21 11:02:10;;;;;;;2.27;2.17;;;19.00;42.00;;;;;;5040616;28;20459;-57
2022/04/21 11:04:35;;;;;;;2.30;2.20;;;19.00;42.00;;;;;;5039987;28;20434;-58
2022/04/21 11:07:13;;;;;;;2.57;2.47;;;19.00;42.00;;;;;;5041999;28;20459;-58
2022/04/21 11:09:46;;;;;;;2.50;2.40;;;19.00;42.00;;;;;;5041225;28;20240;-57
2022/04/21 11:12:16;;;;;;;2.13;2.03;;;19.00;42.00;;;;;;5044358;28;20439;-57
2022/04/21 11:14:42;;;;;;;5.33;2.13;;;19.00;42.00;;;;;;5040402;28;20978;-57
2022/04/21 11:17:08;;;;;;;2.83;2.67;;;19.00;42.00;;;;;;5041561;28;20426;-57
2022/04/21 11:19:46;;;;;;;2.80;2.30;;;19.00;42.00;;;;;;5046547;28;20508;-57
2022/04/21 11:22:13;;;;;;;2.83;2.63;;;19.00;42.00;;;;;;5039707;28;20216;-57
2022/04/21 11:24:58;;;;;;;2.60;2.40;;;19.00;42.00;;;;;;5043235;28;20458;-57
2022/04/21 11:27:28;;;;;;;2.53;2.43;;;19.00;42.00;;;;;;5039422;28;20773;-57
2022/04/21 11:30:12;;;;;;;2.57;2.47;;;19.00;42.00;;;;;;5038966;28;20426;-57
2022/04/21 11:32:38;;;;;;;2.30;2.20;;;19.00;42.00;;;;;;5040972;28;20430;-57
2022/04/21 11:35:09;;;;;;;2.40;2.30;;;19.00;42.10;;;;;;5042548;28;20477;-57
2022/04/21 11:37:51;;;;;;;2.73;2.53;;;19.00;42.00;;;;;;5037018;28;20423;-58
2022/04/21 11:40:38;;;;;;;2.20;2.10;;;19.00;42.00;;;;;;5042502;28;21002;-57
2022/04/21 11:43:17;;;;;;;2.80;2.60;;;19.00;42.00;;;;;;5038113;28;20465;-57
2022/04/21 11:45:54;;;;;;;2.80;2.70;;;19.00;42.10;;;;;;5041887;28;20430;-57
2022/04/21 11:48:20;;;;;;;2.10;2.00;;;19.00;42.10;;;;;;5042511;28;20442;-58
2022/04/21 11:50:49;;;;;;;2.57;2.47;;;19.00;42.10;;;;;;5037045;28;20433;-57
2022/04/21 11:53:20;;;;;;;2.63;2.53;;;18.90;42.00;;;;;;5039455;28;20418;-57
2022/04/21 11:55:47;;;;;;;2.60;2.40;;;19.00;42.10;;;;;;5043483;28;20427;-57
2022/04/21 11:58:24;;;;;;;2.50;2.40;;;18.90;42.00;;;;;;5034849;28;20477;-58
2022/04/21 12:06:30;;;;;;;2.30;2.10;;;18.90;42.00;;;;;;5034472;28;20487;-57
2022/04/21 12:08:56;;;;;;;2.50;2.40;;;18.90;42.10;;;;;;5042168;28;20434;-57
2022/04/21 12:11:23;;;;;;;2.30;2.20;;;18.90;42.00;;;;;;5043011;28;20533;-57
2022/04/21 12:13:49;;;;;;;2.37;2.27;;;18.90;42.10;;;;;;5035538;28;20639;-57
2022/04/21 12:16:37;;;;;;;2.67;2.57;;;18.90;42.00;;;;;;5040466;28;20423;-57
2022/04/21 12:19:15;;;;;;;2.20;2.10;;;18.90;42.00;;;;;;5037311;28;20476;-57
2022/04/21 12:21:52;;;;;;;2.40;2.07;;;18.90;42.10;;;;;;5034970;28;20451;-57
2022/04/21 12:24:18;;;;;;;2.63;2.53;;;18.90;42.00;;;;;;5036996;28;20508;-57
2022/04/21 12:26:48;;;;;;;2.67;2.57;;;18.90;42.10;;;;;;5034656;28;20415;-57
2022/04/21 12:29:15;;;;;;;2.50;2.40;;;18.90;42.00;;;;;;5041083;28;20710;-57
2022/04/21 12:31:47;;;;;;;2.70;2.50;;;18.90;42.10;;;;;;5048852;28;20543;-57
2022/04/21 12:34:19;;;;;;;2.10;2.00;;;18.90;42.00;;;;;;5045444;28;20436;-57
2022/04/21 12:36:52;;;;;;;2.60;2.50;;;18.90;42.00;;;;;;5046923;28;20516;-57
2022/04/21 12:39:19;;;;;;;2.50;2.40;;;18.90;42.00;;;;;;5049291;28;20927;-57
2022/04/21 12:41:45;;;;;;;2.80;2.60;;;18.90;42.10;;;;;;5047162;28;20450;-56
2022/04/21 12:44:12;;;;;;;2.17;2.07;;;18.90;42.00;;;;;;5041752;28;20906;-57
2022/04/21 12:46:37;;;;;;;2.30;2.20;;;18.90;42.00;;;;;;5049804;28;20245;-57
2022/04/21 12:49:03;;;;;;;2.30;2.20;;;18.90;42.10;;;;;;5046032;28;20571;-56
2022/04/21 12:51:29;;;;;;;2.30;2.20;;;18.90;42.10;;;;;;5046652;28;20368;-57
2022/04/21 12:53:57;;;;;;;2.50;2.40;;;18.90;42.10;;;;;;5047194;28;20229;-57
2022/04/21 12:56:34;;;;;;;2.50;2.40;;;18.90;42.10;;;;;;5045506;28;20230;-57
2022/04/21 12:59:00;;;;;;;2.57;2.47;;;18.90;42.10;;;;;;5044689;28;20434;-57
2022/04/21 13:01:26;;;;;;;2.40;2.30;;;18.90;42.90;;;;;;5042722;28;20427;-57
2022/04/21 13:03:51;;;;;;;2.43;2.33;;;18.90;42.90;;;;;;5047968;28;20495;-58
2022/04/21 13:06:30;;;;;;;2.40;2.30;;;18.90;42.20;;;;;;5044342;28;20587;-57
2022/04/21 13:08:56;;;;;;;2.83;2.70;;;18.90;42.10;;;;;;5050143;28;20242;-57
2022/04/21 13:11:23;;;;;;;2.40;2.30;;;18.90;42.10;;;;;;5046214;28;20994;-57
2022/04/21 13:13:50;;;;;;;2.40;2.30;;;18.90;42.10;;;;;;5045758;28;20437;-57
2022/04/21 13:16:17;;;;;;;2.67;2.57;;;18.90;42.10;;;;;;5033072;28;20493;-55
2022/04/21 13:18:43;;;;;;;2.53;2.43;;;18.90;42.10;;;;;;5045567;28;20448;-56
2022/04/21 13:23:53;;;;;;;2.30;2.20;;;18.90;42.10;;;;;;5046362;28;21037;-55
2022/04/21 13:26:20;;;;;;;2.90;2.80;;;18.90;42.10;;;;;;5051718;28;20422;-55
2022/04/21 13:28:46;;;;;;;2.87;2.67;;;18.90;42.10;;;;;;5045334;28;20451;-55
2022/04/21 13:33:55;;;;;;;2.80;2.70;;;18.90;42.10;;;;;;5040998;28;20589;-56
2022/04/21 13:36:21;;;;;;;2.47;2.30;;;18.90;42.20;;;;;;5045466;28;20448;-56
2022/04/21 13:38:47;;;;;;;2.50;2.40;;;18.90;42.20;;;;;;5048176;28;20222;-56
2022/04/21 13:41:12;;;;;;;2.40;2.30;;;18.90;42.20;;;;;;5038685;28;20215;-56
2022/04/21 13:43:38;;;;;;;2.87;2.77;;;18.90;42.10;;;;;;5040389;28;20227;-56
2022/04/21 13:46:03;;;;;;;2.53;2.43;;;18.90;42.20;;;;;;5046321;28;20238;-56
2022/04/21 13:48:29;;;;;;;2.57;2.47;;;18.90;42.20;;;;;;5046472;28;20227;-55
2022/04/21 13:50:54;;;;;;;2.10;2.00;;;18.90;42.20;;;;;;5041046;28;20234;-56